createdAt,value
2019-01-25T00:01:00.743Z,48.20
2019-01-25T00:03:29.492Z,48.20
2019-01-25T00:05:58.326Z,48.20
2019-01-25T00:08:27.100Z,48.30
2019-01-25T00:10:55.844Z,48.20
2019-01-25T00:13:24.594Z,48.30
2019-01-25T00:15:53.353Z,48.30
2019-01-25T00:18:22.103Z,48.20
2019-01-25T00:20:50.857Z,48.30
2019-01-25T00:23:19.623Z,48.20
2019-01-25T00:25:48.398Z,48.20
2019-01-25T00:28:17.183Z,48.20
2019-01-25T00:30:45.947Z,48.20
2019-01-25T00:33:14.688Z,48.00
2019-01-25T00:35:43.458Z,48.20
2019-01-25T00:38:12.225Z,48.20
2019-01-25T00:40:42.042Z,48.30
2019-01-25T00:43:10.829Z,48.20
2019-01-25T00:45:39.705Z,48.20
2019-01-25T00:48:08.523Z,48.20
2019-01-25T00:50:37.249Z,48.20
2019-01-25T00:53:05.989Z,48.20
2019-01-25T00:55:34.767Z,48.10
2019-01-25T00:58:03.540Z,48.20
2019-01-25T01:00:32.284Z,48.10
2019-01-25T01:03:01.067Z,48.20
2019-01-25T01:05:29.832Z,48.40
2019-01-25T01:07:58.595Z,48.20
2019-01-25T01:10:27.407Z,48.20
2019-01-25T01:12:56.177Z,48.20
2019-01-25T01:15:24.975Z,48.30
2019-01-25T01:17:53.715Z,48.10
2019-01-25T01:20:22.555Z,48.30
2019-01-25T01:22:51.330Z,48.30
2019-01-25T01:25:20.117Z,48.30
2019-01-25T01:27:48.861Z,48.30
2019-01-25T01:30:19.836Z,48.40
2019-01-25T01:32:48.593Z,48.30
2019-01-25T01:35:17.347Z,48.30
2019-01-25T01:37:46.197Z,48.30
2019-01-25T01:40:22.869Z,48.00
2019-01-25T01:42:51.833Z,48.20
2019-01-25T01:45:20.665Z,48.10
2019-01-25T01:47:49.446Z,48.00
2019-01-25T01:50:18.543Z,48.20
2019-01-25T01:52:48.331Z,48.20
2019-01-25T01:55:17.105Z,48.20
2019-01-25T01:57:45.861Z,48.20
2019-01-25T02:00:17.335Z,48.20
2019-01-25T02:02:46.101Z,48.10
2019-01-25T02:05:14.865Z,48.20
2019-01-25T02:07:43.599Z,48.20
2019-01-25T02:10:14.589Z,48.20
2019-01-25T02:12:43.343Z,48.30
2019-01-25T02:15:14.063Z,48.30
2019-01-25T02:17:42.955Z,48.20
2019-01-25T02:20:15.280Z,48.30
2019-01-25T02:22:44.045Z,48.30
2019-01-25T02:25:12.925Z,48.20
2019-01-25T02:27:41.763Z,48.40
2019-01-25T02:30:13.110Z,48.10
2019-01-25T02:32:41.884Z,48.30
2019-01-25T02:35:10.723Z,48.30
2019-01-25T02:37:39.502Z,48.30
2019-01-25T02:40:09.568Z,48.30
2019-01-25T02:42:38.362Z,48.30
2019-01-25T02:45:08.834Z,48.20
2019-01-25T02:47:37.604Z,48.20
2019-01-25T02:50:08.373Z,48.20
2019-01-25T02:52:37.129Z,48.30
2019-01-25T02:55:06.811Z,48.20
2019-01-25T02:57:35.658Z,48.20
2019-01-25T03:00:08.354Z,48.20
2019-01-25T03:02:37.101Z,48.20
2019-01-25T03:05:06.768Z,48.30
2019-01-25T03:07:35.551Z,48.20
2019-01-25T03:10:05.628Z,48.40
2019-01-25T03:12:34.486Z,48.20
2019-01-25T03:15:03.343Z,48.40
2019-01-25T03:17:32.143Z,48.40
2019-01-25T03:20:00.994Z,48.30
2019-01-25T03:22:29.762Z,48.30
2019-01-25T03:24:58.545Z,48.30
2019-01-25T03:27:27.294Z,48.40
2019-01-25T03:29:56.062Z,48.20
2019-01-25T03:32:24.824Z,48.40
2019-01-25T03:34:53.603Z,48.40
2019-01-25T03:37:22.362Z,48.40
2019-01-25T03:39:51.144Z,48.40
2019-01-25T03:42:19.978Z,48.30
2019-01-25T03:44:48.740Z,48.30
2019-01-25T03:47:17.507Z,48.40
2019-01-25T03:49:46.266Z,48.40
2019-01-25T03:52:15.129Z,48.10
2019-01-25T03:54:43.895Z,48.30
2019-01-25T03:57:12.646Z,48.30
2019-01-25T03:59:41.428Z,48.20
2019-01-25T04:02:10.267Z,48.20
2019-01-25T04:04:39.066Z,48.30
2019-01-25T04:07:07.840Z,48.30
2019-01-25T04:09:36.628Z,48.30
2019-01-25T04:12:05.564Z,48.20
2019-01-25T04:14:34.330Z,48.20
2019-01-25T04:17:03.095Z,48.40
2019-01-25T04:19:31.843Z,48.30
2019-01-25T04:22:00.620Z,48.30
2019-01-25T04:24:29.394Z,48.50
2019-01-25T04:26:58.220Z,48.50
2019-01-25T04:29:26.965Z,48.50
2019-01-25T04:31:55.739Z,48.40
2019-01-25T04:34:24.520Z,48.40
2019-01-25T04:36:53.416Z,48.30
2019-01-25T04:39:22.203Z,48.40
2019-01-25T04:41:50.943Z,48.30
2019-01-25T04:44:19.792Z,48.10
2019-01-25T04:46:48.553Z,48.30
2019-01-25T04:49:17.329Z,48.20
2019-01-25T04:51:46.115Z,48.20
2019-01-25T04:54:15.158Z,48.20
2019-01-25T04:56:44.006Z,48.20
2019-01-25T04:59:12.770Z,48.00
2019-01-25T05:01:41.574Z,48.20
2019-01-25T05:04:10.324Z,48.30
2019-01-25T05:06:39.172Z,48.30
2019-01-25T05:09:08.924Z,48.40
2019-01-25T05:11:37.663Z,48.40
2019-01-25T05:14:06.442Z,48.40
2019-01-25T05:16:35.217Z,48.30
2019-01-25T05:19:03.988Z,48.30
2019-01-25T05:21:32.756Z,48.20
2019-01-25T05:24:07.389Z,48.20
2019-01-25T05:26:36.220Z,48.10
2019-01-25T05:29:05.026Z,48.10
2019-01-25T05:31:33.784Z,48.20
2019-01-25T05:34:02.572Z,48.30
2019-01-25T05:36:31.322Z,48.20
2019-01-25T05:39:00.100Z,48.10
2019-01-25T05:41:28.985Z,48.10
2019-01-25T05:43:58.758Z,47.90
2019-01-25T05:46:27.512Z,48.20
2019-01-25T05:48:56.262Z,48.10
2019-01-25T05:51:25.028Z,48.10
2019-01-25T05:53:54.050Z,48.00
2019-01-25T05:56:23.280Z,48.00
2019-01-25T05:58:52.058Z,48.00
2019-01-25T06:01:20.828Z,48.10
2019-01-25T06:03:49.612Z,48.10
2019-01-25T06:06:18.391Z,48.00
2019-01-25T06:08:47.154Z,48.20
2019-01-25T06:11:15.898Z,48.20
2019-01-25T06:13:45.513Z,48.20
2019-01-25T06:16:14.673Z,48.20
2019-01-25T06:18:43.461Z,48.20
2019-01-25T06:21:12.225Z,48.20
2019-01-25T06:23:40.991Z,48.40
2019-01-25T06:26:10.899Z,48.10
2019-01-25T06:28:39.658Z,47.80
2019-01-25T06:31:08.412Z,48.00
2019-01-25T06:33:37.197Z,48.10
2019-01-25T06:36:07.328Z,48.10
2019-01-25T06:38:36.684Z,48.20
2019-01-25T06:41:05.894Z,48.20
2019-01-25T06:43:34.680Z,48.10
2019-01-25T06:46:03.524Z,48.20
2019-01-25T06:48:32.268Z,48.20
2019-01-25T06:51:01.043Z,48.00
2019-01-25T06:53:29.866Z,48.10
2019-01-25T06:55:58.623Z,48.10
2019-01-25T06:59:04.703Z,48.00
2019-01-25T07:01:52.504Z,48.00
2019-01-25T07:04:21.344Z,48.00
2019-01-25T07:06:50.123Z,48.00
2019-01-25T07:09:18.864Z,48.00
2019-01-25T07:11:51.769Z,47.90
2019-01-25T07:14:18.176Z,47.90
2019-01-25T07:16:46.988Z,48.10
2019-01-25T07:19:15.834Z,47.90
2019-01-25T07:21:44.598Z,48.10
2019-01-25T07:24:13.366Z,48.10
2019-01-25T07:26:42.121Z,48.20
2019-01-25T07:29:10.943Z,48.10
2019-01-25T07:31:39.833Z,48.20
2019-01-25T07:34:08.960Z,48.20
2019-01-25T07:36:37.751Z,48.10
2019-01-25T07:39:26.665Z,48.20
2019-01-25T07:42:00.221Z,48.30
2019-01-25T07:44:26.052Z,48.30
2019-01-25T07:46:54.880Z,48.30
2019-01-25T07:49:23.691Z,48.50
2019-01-25T07:51:52.443Z,48.30
2019-01-25T07:54:21.359Z,48.20
2019-01-25T07:56:50.191Z,48.10
2019-01-25T07:59:18.953Z,48.30
2019-01-25T08:01:47.705Z,48.30
2019-01-25T08:04:16.455Z,48.30
2019-01-25T08:06:45.233Z,48.30
2019-01-25T08:09:14.037Z,48.30
2019-01-25T08:11:42.830Z,48.40
2019-01-25T08:14:12.871Z,48.40
2019-01-25T08:16:41.859Z,48.50
2019-01-25T08:19:10.869Z,48.20
2019-01-25T08:21:39.657Z,48.30
2019-01-25T08:24:08.435Z,48.40
2019-01-25T08:26:38.962Z,48.30
2019-01-25T08:29:07.753Z,48.20
2019-01-25T08:31:36.583Z,48.30
2019-01-25T08:34:05.457Z,48.20
2019-01-25T08:36:34.308Z,48.30
2019-01-25T08:39:04.539Z,48.30
2019-01-25T08:41:33.459Z,48.30
2019-01-25T08:44:02.229Z,48.30
2019-01-25T08:46:31.007Z,48.30
2019-01-25T08:48:59.791Z,48.30
2019-01-25T08:51:28.607Z,48.30
2019-01-25T08:53:57.452Z,48.30
2019-01-25T08:56:26.236Z,48.30
2019-01-25T08:58:55.130Z,48.30
2019-01-25T09:01:23.915Z,48.40
2019-01-25T09:03:52.687Z,48.20
2019-01-25T09:06:21.439Z,48.20
2019-01-25T09:08:50.283Z,48.20
2019-01-25T09:11:19.092Z,48.10
2019-01-25T09:13:47.923Z,48.30
2019-01-25T09:16:16.726Z,48.40
2019-01-25T09:18:45.497Z,48.30
2019-01-25T09:21:14.250Z,48.30
2019-01-25T09:23:43.125Z,48.30
2019-01-25T09:26:11.913Z,48.20
2019-01-25T09:28:40.721Z,48.90
2019-01-25T09:31:09.551Z,48.40
2019-01-25T09:33:38.423Z,48.40
2019-01-25T09:36:07.183Z,48.40
2019-01-25T09:38:36.027Z,48.40
2019-01-25T09:41:04.775Z,48.40
2019-01-25T09:43:33.535Z,48.40
2019-01-25T09:46:02.325Z,48.40
2019-01-25T09:48:31.091Z,48.30
2019-01-25T09:50:59.849Z,48.50
2019-01-25T09:53:28.619Z,48.50
2019-01-25T09:55:57.461Z,48.50
2019-01-25T09:58:26.239Z,48.60
2019-01-25T10:01:01.491Z,48.60
2019-01-25T10:03:30.251Z,48.60
2019-01-25T10:05:59.025Z,48.60
2019-01-25T10:08:27.761Z,48.60
2019-01-25T10:10:56.519Z,48.50
2019-01-25T10:13:25.432Z,48.50
2019-01-25T10:15:54.192Z,48.50
2019-01-25T10:18:24.867Z,48.30
2019-01-25T10:20:53.711Z,48.40
2019-01-25T10:23:22.489Z,48.40
2019-01-25T10:25:51.288Z,48.30
2019-01-25T10:28:20.170Z,48.40
2019-01-25T10:30:48.996Z,48.30
2019-01-25T10:33:17.843Z,48.20
2019-01-25T10:35:46.649Z,48.40
2019-01-25T10:38:15.475Z,48.40
2019-01-25T10:40:44.303Z,48.40
2019-01-25T10:43:13.103Z,48.40
2019-01-25T10:45:42.361Z,48.40
2019-01-25T10:48:11.139Z,48.40
2019-01-25T10:50:39.997Z,48.50
2019-01-25T10:53:09.497Z,48.40
2019-01-25T10:55:39.191Z,48.30
2019-01-25T10:58:08.511Z,48.40
2019-01-25T11:00:37.287Z,48.20
2019-01-25T11:03:06.171Z,48.50
2019-01-25T11:05:35.003Z,48.60
2019-01-25T11:08:03.836Z,48.50
2019-01-25T11:10:32.751Z,48.50
2019-01-25T11:13:01.513Z,48.50
2019-01-25T11:15:30.283Z,48.50
2019-01-25T11:17:59.042Z,48.40
2019-01-25T11:20:27.837Z,48.60
2019-01-25T11:22:56.595Z,48.60
2019-01-25T11:25:27.984Z,48.60
2019-01-25T11:27:56.749Z,48.50
2019-01-25T11:30:25.500Z,48.50
2019-01-25T11:32:54.340Z,48.50
2019-01-25T11:35:23.102Z,48.60
2019-01-25T11:37:51.960Z,48.50
2019-01-25T11:40:26.084Z,48.50
2019-01-25T11:42:54.848Z,48.50
2019-01-25T11:45:23.627Z,48.50
2019-01-25T11:47:52.394Z,48.80
2019-01-25T11:50:21.250Z,48.80
2019-01-25T11:52:50.033Z,48.70
2019-01-25T11:55:18.900Z,48.70
2019-01-25T11:57:47.667Z,48.70
2019-01-25T12:00:22.246Z,48.50
2019-01-25T12:02:51.300Z,48.70
2019-01-25T12:05:21.328Z,48.60
2019-01-25T12:07:50.114Z,48.70
2019-01-25T12:10:21.248Z,48.70
2019-01-25T12:12:50.898Z,48.60
2019-01-25T12:15:19.745Z,48.60
2019-01-25T12:17:48.520Z,48.70
2019-01-25T12:20:20.064Z,48.60
2019-01-25T12:22:48.863Z,48.40
2019-01-25T12:25:18.048Z,48.40
2019-01-25T12:27:46.912Z,48.60
2019-01-25T12:30:40.833Z,48.70
2019-01-25T12:33:10.379Z,48.60
2019-01-25T12:35:41.387Z,48.60
2019-01-25T12:38:10.147Z,48.60
2019-01-25T12:40:42.209Z,48.60
2019-01-25T12:43:09.524Z,48.60
2019-01-25T12:45:38.334Z,48.60
2019-01-25T12:48:07.098Z,48.60
2019-01-25T12:50:48.859Z,48.70
2019-01-25T12:53:15.704Z,48.60
2019-01-25T12:55:44.588Z,48.70
2019-01-25T12:58:13.337Z,48.60
2019-01-25T13:00:42.338Z,48.60
2019-01-25T13:03:11.306Z,48.40
2019-01-25T13:05:40.168Z,48.40
2019-01-25T13:08:09.020Z,48.60
2019-01-25T13:10:37.789Z,48.60
2019-01-25T13:13:06.784Z,48.40
2019-01-25T13:15:35.552Z,48.50
2019-01-25T13:18:04.432Z,48.40
2019-01-25T13:20:39.361Z,48.20
2019-01-25T13:23:05.613Z,48.20
2019-01-25T13:25:34.482Z,48.20
2019-01-25T13:28:03.314Z,48.10
2019-01-25T13:30:32.214Z,48.00
2019-01-25T13:33:01.236Z,47.90
2019-01-25T13:35:30.083Z,48.00
2019-01-25T13:37:58.926Z,48.20
2019-01-25T13:40:27.914Z,48.10
2019-01-25T13:42:56.778Z,48.20
2019-01-25T13:45:25.576Z,48.30
2019-01-25T13:47:55.224Z,48.30
2019-01-25T13:50:27.174Z,48.30
2019-01-25T13:52:56.064Z,48.40
2019-01-25T13:55:24.884Z,48.50
2019-01-25T13:57:53.653Z,48.50
2019-01-25T14:00:27.347Z,48.60
2019-01-25T14:02:56.145Z,48.50
2019-01-25T14:05:24.979Z,48.50
2019-01-25T14:07:53.738Z,48.60
2019-01-25T14:10:30.407Z,48.60
2019-01-25T14:12:59.398Z,48.40
2019-01-25T14:15:28.458Z,48.50
2019-01-25T14:17:57.236Z,48.50
2019-01-25T14:20:27.802Z,48.30
2019-01-25T14:22:56.568Z,48.60
2019-01-25T14:25:25.511Z,48.60
2019-01-25T14:27:54.387Z,48.60
2019-01-25T14:30:34.309Z,48.60
2019-01-25T14:33:03.066Z,48.40
2019-01-25T14:35:31.942Z,48.60
2019-01-25T14:38:00.786Z,48.70
2019-01-25T14:40:29.534Z,48.60
2019-01-25T14:42:58.443Z,48.70
2019-01-25T14:45:27.525Z,48.60
2019-01-25T14:47:56.311Z,48.70
2019-01-25T14:50:25.903Z,48.70
2019-01-25T14:52:54.668Z,48.70
2019-01-25T14:55:23.475Z,48.60
2019-01-25T14:57:52.279Z,48.70
2019-01-25T15:00:21.067Z,48.70
2019-01-25T15:02:49.813Z,48.60
2019-01-25T15:05:19.077Z,48.70
2019-01-25T15:07:47.886Z,48.60
2019-01-25T15:10:18.575Z,48.60
2019-01-25T15:12:47.626Z,48.70
2019-01-25T15:15:16.575Z,48.70
2019-01-25T15:17:45.360Z,48.80
2019-01-25T15:20:19.578Z,48.80
2019-01-25T15:22:48.360Z,48.80
2019-01-25T15:25:17.137Z,48.60
2019-01-25T15:27:45.927Z,48.80
2019-01-25T15:30:19.677Z,48.80
2019-01-25T15:32:48.467Z,48.90
2019-01-25T15:35:18.139Z,49.50
2019-01-25T15:37:46.999Z,48.90
2019-01-25T15:40:16.028Z,49.00
2019-01-25T15:42:44.802Z,49.10
2019-01-25T15:45:14.834Z,49.10
2019-01-25T15:47:43.658Z,49.10
2019-01-25T15:50:29.670Z,49.10
2019-01-25T15:52:58.477Z,49.20
2019-01-25T15:55:27.610Z,49.20
2019-01-25T15:57:56.422Z,49.00
2019-01-25T16:00:26.425Z,49.10
2019-01-25T16:02:55.367Z,49.20
2019-01-25T16:05:25.044Z,49.00
2019-01-25T16:07:53.897Z,49.00
2019-01-25T16:10:23.211Z,49.10
2019-01-25T16:12:52.444Z,49.10
2019-01-25T16:15:23.636Z,49.20
2019-01-25T16:17:52.559Z,49.10
2019-01-25T16:20:21.374Z,49.10
2019-01-25T16:22:50.587Z,49.10
2019-01-25T16:25:27.856Z,49.10
2019-01-25T16:27:56.864Z,48.80
2019-01-25T16:30:27.972Z,49.00
2019-01-25T16:32:56.861Z,49.10
2019-01-25T16:35:25.769Z,49.10
2019-01-25T16:37:54.947Z,49.10
2019-01-25T16:40:24.570Z,49.10
2019-01-25T16:42:53.467Z,49.10
2019-01-25T16:45:25.373Z,49.30
2019-01-25T16:47:54.167Z,49.20
2019-01-25T16:50:24.087Z,49.30
2019-01-25T16:52:53.165Z,49.30
2019-01-25T16:55:22.041Z,49.20
2019-01-25T16:57:50.917Z,49.20
2019-01-25T17:00:25.721Z,49.30
2019-01-25T17:02:54.668Z,49.30
2019-01-25T17:05:23.584Z,49.20
2019-01-25T17:07:52.442Z,49.20
2019-01-25T17:10:21.415Z,49.10
2019-01-25T17:12:50.207Z,49.20
2019-01-25T17:15:19.356Z,49.20
2019-01-25T17:17:48.186Z,49.10
2019-01-25T17:20:21.242Z,49.20
2019-01-25T17:22:48.225Z,49.20
2019-01-25T17:25:17.191Z,49.10
2019-01-25T17:27:46.148Z,49.20
2019-01-25T17:30:26.248Z,49.20
2019-01-25T17:32:56.137Z,49.20
2019-01-25T17:35:24.943Z,49.30
2019-01-25T17:37:53.927Z,49.20
2019-01-25T17:40:28.181Z,49.30
2019-01-25T17:42:57.155Z,49.30
2019-01-25T17:45:26.099Z,49.30
2019-01-25T17:47:55.081Z,49.30
2019-01-25T17:50:24.083Z,49.10
2019-01-25T17:52:53.262Z,49.20
2019-01-25T17:55:22.232Z,49.20
2019-01-25T17:57:51.161Z,49.20
2019-01-25T18:00:33.967Z,49.20
2019-01-25T18:03:02.767Z,49.20
2019-01-25T18:05:31.657Z,49.20
2019-01-25T18:08:00.474Z,49.10
2019-01-25T18:10:29.279Z,49.30
2019-01-25T18:12:58.148Z,49.30
2019-01-25T18:15:27.050Z,49.30
2019-01-25T18:17:56.495Z,49.30
2019-01-25T18:20:25.606Z,49.30
2019-01-25T18:22:54.857Z,49.30
2019-01-25T18:25:31.307Z,49.30
2019-01-25T18:28:02.127Z,49.30
2019-01-25T18:30:35.543Z,49.30
2019-01-25T18:33:04.363Z,49.30
2019-01-25T18:35:33.337Z,49.20
2019-01-25T18:38:02.231Z,49.20
2019-01-25T18:40:31.303Z,49.30
2019-01-25T18:43:01.457Z,49.20
2019-01-25T18:45:30.428Z,49.20
2019-01-25T18:47:59.434Z,49.20
2019-01-25T18:50:28.540Z,49.30
2019-01-25T18:52:57.831Z,49.80
2019-01-25T18:55:26.853Z,49.20
2019-01-25T18:57:56.167Z,49.30
2019-01-25T19:00:26.253Z,49.20
2019-01-25T19:02:55.755Z,49.20
2019-01-25T19:05:25.019Z,49.20
2019-01-25T19:07:56.205Z,49.30
2019-01-25T19:10:26.334Z,49.20
2019-01-25T19:12:57.819Z,49.20
2019-01-25T19:15:28.397Z,49.30
2019-01-25T19:17:57.496Z,49.10
2019-01-25T19:20:28.473Z,49.00
2019-01-25T19:22:57.583Z,48.90
2019-01-25T19:25:26.599Z,49.00
2019-01-25T19:27:55.627Z,49.00
2019-01-25T19:30:32.832Z,49.10
2019-01-25T19:33:02.286Z,49.10
2019-01-25T19:35:31.436Z,49.10
2019-01-25T19:38:00.606Z,49.10
2019-01-25T19:40:31.174Z,49.00
2019-01-25T19:43:00.272Z,49.20
2019-01-25T19:45:32.180Z,49.20
2019-01-25T19:48:01.306Z,49.20
2019-01-25T19:50:30.751Z,49.20
2019-01-25T19:52:59.962Z,49.20
2019-01-25T19:55:31.781Z,49.20
2019-01-25T19:58:00.949Z,49.20
2019-01-25T20:00:37.508Z,49.10
2019-01-25T20:03:08.162Z,49.00
2019-01-25T20:05:39.591Z,48.90
2019-01-25T20:08:08.825Z,49.00
2019-01-25T20:10:38.272Z,49.10
2019-01-25T20:13:09.257Z,49.10
2019-01-25T20:15:38.718Z,49.10
2019-01-25T20:18:07.829Z,49.00
2019-01-25T20:20:37.919Z,49.10
2019-01-25T20:23:08.436Z,49.10
2019-01-25T20:25:38.171Z,49.00
2019-01-25T20:28:08.532Z,49.10
2019-01-25T20:30:37.704Z,49.10
2019-01-25T20:33:06.813Z,49.10
2019-01-25T20:35:38.537Z,49.10
2019-01-25T20:38:08.082Z,49.10
2019-01-25T20:40:37.167Z,49.20
2019-01-25T20:43:06.264Z,49.10
2019-01-25T20:45:37.531Z,49.10
2019-01-25T20:48:09.464Z,48.90
2019-01-25T20:50:39.676Z,48.80
2019-01-25T20:53:10.126Z,48.90
2019-01-25T20:55:41.945Z,49.00
2019-01-25T20:58:11.519Z,49.00
2019-01-25T21:00:40.885Z,49.00
2019-01-25T21:03:13.004Z,49.00
2019-01-25T21:05:43.258Z,49.00
2019-01-25T21:08:12.760Z,49.00
2019-01-25T21:10:41.860Z,48.90
2019-01-25T21:13:11.283Z,49.00
2019-01-25T21:15:40.404Z,49.50
2019-01-25T21:18:13.086Z,48.90
2019-01-25T21:20:44.440Z,49.00
2019-01-25T21:23:13.945Z,49.00
2019-01-25T21:25:43.066Z,49.00
2019-01-25T21:28:12.286Z,49.00
2019-01-25T21:30:41.693Z,49.00
2019-01-25T21:33:10.842Z,48.90
2019-01-25T21:35:42.559Z,48.80
2019-01-25T21:38:11.713Z,48.80
2019-01-25T21:40:41.258Z,49.00
2019-01-25T21:43:12.508Z,49.00
2019-01-25T21:45:52.310Z,49.00
2019-01-25T21:48:22.206Z,48.90
2019-01-25T21:50:52.624Z,49.00
2019-01-25T21:53:21.714Z,49.00
2019-01-25T21:55:50.858Z,48.90
2019-01-25T21:58:20.223Z,49.00
2019-01-25T22:00:50.278Z,49.00
2019-01-25T22:03:20.447Z,48.90
2019-01-25T22:05:49.502Z,49.00
2019-01-25T22:08:20.230Z,48.90
2019-01-25T22:10:50.477Z,48.90
2019-01-25T22:13:21.307Z,48.90
2019-01-25T22:15:51.220Z,48.90
2019-01-25T22:18:20.830Z,48.80
2019-01-25T22:20:49.788Z,48.80
2019-01-25T22:23:18.818Z,48.60
2019-01-25T22:25:47.809Z,48.80
2019-01-25T22:28:16.757Z,48.90
2019-01-25T22:30:45.731Z,48.90
2019-01-25T22:33:14.533Z,48.90
2019-01-25T22:35:43.587Z,48.90
2019-01-25T22:38:12.516Z,48.90
2019-01-25T22:40:41.354Z,48.80
2019-01-25T22:43:10.375Z,48.90
2019-01-25T22:45:39.258Z,49.00
2019-01-25T22:48:08.171Z,49.00
2019-01-25T22:50:37.554Z,49.00
2019-01-25T22:53:06.362Z,49.00
2019-01-25T22:55:35.250Z,49.10
2019-01-25T22:58:04.029Z,49.10
2019-01-25T23:01:00.236Z,49.00
2019-01-25T23:03:32.898Z,49.00
2019-01-25T23:06:33.707Z,48.90
2019-01-25T23:09:09.054Z,49.00
2019-01-25T23:11:37.865Z,48.90
2019-01-25T23:14:06.799Z,49.00
2019-01-25T23:16:35.576Z,48.90
2019-01-25T23:19:04.521Z,49.00
2019-01-25T23:21:33.271Z,48.90
2019-01-25T23:24:02.145Z,48.90
2019-01-25T23:26:30.911Z,48.90
2019-01-25T23:28:59.669Z,48.80
2019-01-25T23:31:28.537Z,48.90
2019-01-25T23:33:57.278Z,48.90
2019-01-25T23:36:26.127Z,48.90
2019-01-25T23:38:54.887Z,48.90
2019-01-25T23:41:23.781Z,49.00
2019-01-25T23:43:52.546Z,49.00
2019-01-25T23:46:21.308Z,49.00
2019-01-25T23:48:50.158Z,49.00
2019-01-25T23:51:22.918Z,49.00
2019-01-25T23:53:49.426Z,49.00
2019-01-25T23:56:18.507Z,48.90
2019-01-25T23:58:47.328Z,48.70
